sensor_id;sensor_type;location;lat;lon;timestamp;P1;durP1;ratioP1;P2;durP2;ratioP2
59052;SDS011;44843;44.728;10.396;2022-09-02T00:03:44;8.45;;;7.55;;
59052;SDS011;44843;44.728;10.396;2022-09-02T00:06:10;8.70;;;7.45;;
59052;SDS011;44843;44.728;10.396;2022-09-02T00:08:37;8.63;;;6.25;;
59052;SDS011;44843;44.728;10.396;2022-09-02T00:11:03;7.25;;;5.93;;
59052;SDS011;44843;44.728;10.396;2022-09-02T00:13:30;8.45;;;6.10;;
59052;SDS011;44843;44.728;10.396;2022-09-02T00:15:56;6.78;;;4.90;;
59052;SDS011;44843;44.728;10.396;2022-09-02T00:18:21;6.85;;;3.53;;
59052;SDS011;44843;44.728;10.396;2022-09-02T00:20:47;4.55;;;3.40;;
59052;SDS011;44843;44.728;10.396;2022-09-02T00:23:13;5.80;;;3.20;;
59052;SDS011;44843;44.728;10.396;2022-09-02T00:25:40;4.07;;;2.63;;
59052;SDS011;44843;44.728;10.396;2022-09-02T00:28:08;3.45;;;2.65;;
59052;SDS011;44843;44.728;10.396;2022-09-02T00:30:33;5.90;;;3.03;;
59052;SDS011;44843;44.728;10.396;2022-09-02T00:32:59;4.65;;;2.40;;
59052;SDS011;44843;44.728;10.396;2022-09-02T00:35:26;4.32;;;2.65;;
59052;SDS011;44843;44.728;10.396;2022-09-02T00:37:52;4.05;;;2.30;;
59052;SDS011;44843;44.728;10.396;2022-09-02T00:40:17;2.45;;;2.10;;
59052;SDS011;44843;44.728;10.396;2022-09-02T00:42:43;4.05;;;2.13;;
59052;SDS011;44843;44.728;10.396;2022-09-02T00:45:09;2.90;;;1.95;;
59052;SDS011;44843;44.728;10.396;2022-09-02T00:47:35;3.88;;;2.17;;
59052;SDS011;44843;44.728;10.396;2022-09-02T00:50:03;4.60;;;2.50;;
59052;SDS011;44843;44.728;10.396;2022-09-02T00:52:39;3.00;;;2.17;;
59052;SDS011;44843;44.728;10.396;2022-09-02T00:55:11;3.78;;;2.75;;
59052;SDS011;44843;44.728;10.396;2022-09-02T00:57:43;3.25;;;2.50;;
59052;SDS011;44843;44.728;10.396;2022-09-02T01:00:14;4.28;;;2.70;;
59052;SDS011;44843;44.728;10.396;2022-09-02T01:02:48;4.18;;;2.10;;
59052;SDS011;44843;44.728;10.396;2022-09-02T01:05:19;3.88;;;3.40;;
59052;SDS011;44843;44.728;10.396;2022-09-02T01:07:45;6.22;;;4.22;;
59052;SDS011;44843;44.728;10.396;2022-09-02T01:10:16;6.82;;;4.43;;
59052;SDS011;44843;44.728;10.396;2022-09-02T01:12:44;5.15;;;4.38;;
59052;SDS011;44843;44.728;10.396;2022-09-02T01:15:10;6.53;;;4.82;;
59052;SDS011;44843;44.728;10.396;2022-09-02T01:17:38;6.82;;;5.22;;
59052;SDS011;44843;44.728;10.396;2022-09-02T01:20:08;6.30;;;5.40;;
59052;SDS011;44843;44.728;10.396;2022-09-02T01:22:39;10.68;;;7.40;;
59052;SDS011;44843;44.728;10.396;2022-09-02T01:25:17;8.43;;;7.47;;
59052;SDS011;44843;44.728;10.396;2022-09-02T01:27:45;11.35;;;8.52;;
59052;SDS011;44843;44.728;10.396;2022-09-02T01:30:17;13.55;;;8.60;;
59052;SDS011;44843;44.728;10.396;2022-09-02T01:32:48;12.18;;;9.25;;
59052;SDS011;44843;44.728;10.396;2022-09-02T01:35:13;12.77;;;8.90;;
59052;SDS011;44843;44.728;10.396;2022-09-02T01:37:40;15.27;;;9.35;;
59052;SDS011;44843;44.728;10.396;2022-09-02T01:40:07;14.05;;;9.98;;
59052;SDS011;44843;44.728;10.396;2022-09-02T01:42:34;11.73;;;8.30;;
59052;SDS011;44843;44.728;10.396;2022-09-02T01:45:00;11.88;;;9.57;;
59052;SDS011;44843;44.728;10.396;2022-09-02T01:47:26;12.32;;;9.23;;
59052;SDS011;44843;44.728;10.396;2022-09-02T01:49:52;12.25;;;9.82;;
59052;SDS011;44843;44.728;10.396;2022-09-02T01:52:18;11.65;;;9.95;;
59052;SDS011;44843;44.728;10.396;2022-09-02T01:54:45;12.70;;;9.18;;
59052;SDS011;44843;44.728;10.396;2022-09-02T01:57:11;15.50;;;9.73;;
59052;SDS011;44843;44.728;10.396;2022-09-02T01:59:37;12.15;;;9.10;;
59052;SDS011;44843;44.728;10.396;2022-09-02T02:02:03;17.38;;;9.80;;
59052;SDS011;44843;44.728;10.396;2022-09-02T02:04:29;13.00;;;9.43;;
59052;SDS011;44843;44.728;10.396;2022-09-02T02:06:54;16.40;;;10.10;;
59052;SDS011;44843;44.728;10.396;2022-09-02T02:09:21;15.07;;;10.30;;
59052;SDS011;44843;44.728;10.396;2022-09-02T02:11:46;14.70;;;9.35;;
59052;SDS011;44843;44.728;10.396;2022-09-02T02:14:12;17.83;;;9.30;;
59052;SDS011;44843;44.728;10.396;2022-09-02T02:16:38;15.07;;;9.18;;
59052;SDS011;44843;44.728;10.396;2022-09-02T02:19:03;13.48;;;8.82;;
59052;SDS011;44843;44.728;10.396;2022-09-02T02:21:29;14.27;;;8.80;;
59052;SDS011;44843;44.728;10.396;2022-09-02T02:23:56;12.43;;;9.07;;
59052;SDS011;44843;44.728;10.396;2022-09-02T02:26:24;14.45;;;9.25;;
59052;SDS011;44843;44.728;10.396;2022-09-02T02:28:49;15.43;;;9.52;;
59052;SDS011;44843;44.728;10.396;2022-09-02T02:31:15;16.52;;;9.73;;
59052;SDS011;44843;44.728;10.396;2022-09-02T02:33:40;19.38;;;10.25;;
59052;SDS011;44843;44.728;10.396;2022-09-02T02:36:06;13.48;;;9.52;;
59052;SDS011;44843;44.728;10.396;2022-09-02T02:38:33;13.23;;;9.27;;
59052;SDS011;44843;44.728;10.396;2022-09-02T02:41:00;15.27;;;9.88;;
59052;SDS011;44843;44.728;10.396;2022-09-02T02:43:26;14.57;;;10.23;;
59052;SDS011;44843;44.728;10.396;2022-09-02T02:45:51;15.77;;;11.00;;
59052;SDS011;44843;44.728;10.396;2022-09-02T02:48:18;16.95;;;9.48;;
59052;SDS011;44843;44.728;10.396;2022-09-02T02:50:44;15.68;;;10.27;;
59052;SDS011;44843;44.728;10.396;2022-09-02T02:53:10;13.05;;;10.63;;
59052;SDS011;44843;44.728;10.396;2022-09-02T02:55:37;23.33;;;10.52;;
59052;SDS011;44843;44.728;10.396;2022-09-02T02:58:03;15.32;;;11.07;;
59052;SDS011;44843;44.728;10.396;2022-09-02T03:00:30;17.35;;;12.15;;
59052;SDS011;44843;44.728;10.396;2022-09-02T03:03:04;15.32;;;11.50;;
59052;SDS011;44843;44.728;10.396;2022-09-02T03:05:32;15.57;;;11.10;;
59052;SDS011;44843;44.728;10.396;2022-09-02T03:07:59;14.43;;;11.13;;
59052;SDS011;44843;44.728;10.396;2022-09-02T03:10:26;12.90;;;10.30;;
59052;SDS011;44843;44.728;10.396;2022-09-02T03:12:52;11.38;;;10.18;;
59052;SDS011;44843;44.728;10.396;2022-09-02T03:15:18;15.93;;;10.77;;
59052;SDS011;44843;44.728;10.396;2022-09-02T03:17:45;12.55;;;10.07;;
59052;SDS011;44843;44.728;10.396;2022-09-02T03:20:12;12.75;;;9.80;;
59052;SDS011;44843;44.728;10.396;2022-09-02T03:22:39;16.08;;;8.93;;
59052;SDS011;44843;44.728;10.396;2022-09-02T03:25:07;10.73;;;9.20;;
59052;SDS011;44843;44.728;10.396;2022-09-02T03:27:35;14.05;;;9.60;;
59052;SDS011;44843;44.728;10.396;2022-09-02T03:30:03;19.67;;;11.27;;
59052;SDS011;44843;44.728;10.396;2022-09-02T03:32:30;13.80;;;10.70;;
59052;SDS011;44843;44.728;10.396;2022-09-02T03:34:55;13.55;;;10.07;;
59052;SDS011;44843;44.728;10.396;2022-09-02T03:37:20;18.10;;;11.15;;
59052;SDS011;44843;44.728;10.396;2022-09-02T03:39:46;17.67;;;11.55;;
59052;SDS011;44843;44.728;10.396;2022-09-02T03:42:11;14.70;;;11.20;;
59052;SDS011;44843;44.728;10.396;2022-09-02T03:44:38;15.48;;;11.23;;
59052;SDS011;44843;44.728;10.396;2022-09-02T03:47:05;15.25;;;11.15;;
59052;SDS011;44843;44.728;10.396;2022-09-02T03:49:31;15.65;;;10.90;;
59052;SDS011;44843;44.728;10.396;2022-09-02T03:51:56;13.63;;;9.70;;
59052;SDS011;44843;44.728;10.396;2022-09-02T03:54:22;11.35;;;8.48;;
59052;SDS011;44843;44.728;10.396;2022-09-02T03:56:47;10.32;;;7.88;;
59052;SDS011;44843;44.728;10.396;2022-09-02T03:59:13;9.95;;;8.02;;
59052;SDS011;44843;44.728;10.396;2022-09-02T04:01:38;11.05;;;8.80;;
59052;SDS011;44843;44.728;10.396;2022-09-02T04:04:04;13.88;;;8.32;;
59052;SDS011;44843;44.728;10.396;2022-09-02T04:06:31;10.57;;;7.55;;
59052;SDS011;44843;44.728;10.396;2022-09-02T04:08:57;13.18;;;7.80;;
59052;SDS011;44843;44.728;10.396;2022-09-02T04:11:22;10.13;;;7.40;;
59052;SDS011;44843;44.728;10.396;2022-09-02T04:13:49;14.10;;;7.88;;
59052;SDS011;44843;44.728;10.396;2022-09-02T04:16:16;12.02;;;8.20;;
59052;SDS011;44843;44.728;10.396;2022-09-02T04:18:44;13.13;;;8.00;;
59052;SDS011;44843;44.728;10.396;2022-09-02T04:21:10;10.15;;;8.23;;
59052;SDS011;44843;44.728;10.396;2022-09-02T04:23:36;13.18;;;7.70;;
59052;SDS011;44843;44.728;10.396;2022-09-02T04:26:06;13.27;;;8.25;;
59052;SDS011;44843;44.728;10.396;2022-09-02T04:28:33;14.23;;;7.65;;
59052;SDS011;44843;44.728;10.396;2022-09-02T04:31:02;7.22;;;6.38;;
59052;SDS011;44843;44.728;10.396;2022-09-02T04:33:28;8.27;;;5.03;;
59052;SDS011;44843;44.728;10.396;2022-09-02T04:35:53;8.40;;;5.00;;
59052;SDS011;44843;44.728;10.396;2022-09-02T04:38:19;6.93;;;4.05;;
59052;SDS011;44843;44.728;10.396;2022-09-02T04:40:45;6.38;;;3.78;;
59052;SDS011;44843;44.728;10.396;2022-09-02T04:43:11;6.90;;;3.75;;
59052;SDS011;44843;44.728;10.396;2022-09-02T04:45:38;5.10;;;3.22;;
59052;SDS011;44843;44.728;10.396;2022-09-02T04:48:07;3.83;;;3.35;;
59052;SDS011;44843;44.728;10.396;2022-09-02T04:50:34;4.82;;;3.13;;
59052;SDS011;44843;44.728;10.396;2022-09-02T04:53:00;4.10;;;3.40;;
59052;SDS011;44843;44.728;10.396;2022-09-02T04:55:26;4.82;;;3.38;;
59052;SDS011;44843;44.728;10.396;2022-09-02T04:57:52;6.18;;;3.65;;
59052;SDS011;44843;44.728;10.396;2022-09-02T05:00:17;5.43;;;3.67;;
59052;SDS011;44843;44.728;10.396;2022-09-02T05:02:43;7.95;;;4.00;;
59052;SDS011;44843;44.728;10.396;2022-09-02T05:05:09;6.13;;;4.32;;
59052;SDS011;44843;44.728;10.396;2022-09-02T05:07:36;5.63;;;4.13;;
59052;SDS011;44843;44.728;10.396;2022-09-02T05:10:02;6.25;;;4.78;;
59052;SDS011;44843;44.728;10.396;2022-09-02T05:12:33;6.30;;;4.53;;
59052;SDS011;44843;44.728;10.396;2022-09-02T05:15:00;6.10;;;5.25;;
59052;SDS011;44843;44.728;10.396;2022-09-02T05:17:27;10.35;;;5.82;;
59052;SDS011;44843;44.728;10.396;2022-09-02T05:19:55;11.93;;;6.35;;
59052;SDS011;44843;44.728;10.396;2022-09-02T05:22:21;12.95;;;7.18;;
59052;SDS011;44843;44.728;10.396;2022-09-02T05:24:47;12.20;;;7.07;;
59052;SDS011;44843;44.728;10.396;2022-09-02T05:27:13;9.75;;;6.93;;
59052;SDS011;44843;44.728;10.396;2022-09-02T05:29:40;9.73;;;6.82;;
59052;SDS011;44843;44.728;10.396;2022-09-02T05:32:06;10.18;;;6.45;;
59052;SDS011;44843;44.728;10.396;2022-09-02T05:34:32;9.43;;;6.15;;
59052;SDS011;44843;44.728;10.396;2022-09-02T05:36:59;9.52;;;5.68;;
59052;SDS011;44843;44.728;10.396;2022-09-02T05:39:25;9.07;;;6.47;;
59052;SDS011;44843;44.728;10.396;2022-09-02T05:41:51;9.30;;;6.00;;
59052;SDS011;44843;44.728;10.396;2022-09-02T05:44:16;12.85;;;6.60;;
59052;SDS011;44843;44.728;10.396;2022-09-02T05:46:42;8.57;;;4.55;;
59052;SDS011;44843;44.728;10.396;2022-09-02T05:49:07;6.75;;;3.65;;
59052;SDS011;44843;44.728;10.396;2022-09-02T05:51:43;6.05;;;3.22;;
59052;SDS011;44843;44.728;10.396;2022-09-02T05:54:22;7.70;;;2.97;;
59052;SDS011;44843;44.728;10.396;2022-09-02T05:57:09;5.80;;;3.00;;
59052;SDS011;44843;44.728;10.396;2022-09-02T05:59:37;3.95;;;2.97;;
59052;SDS011;44843;44.728;10.396;2022-09-02T06:02:06;7.03;;;2.95;;
59052;SDS011;44843;44.728;10.396;2022-09-02T06:04:37;5.30;;;3.47;;
59052;SDS011;44843;44.728;10.396;2022-09-02T06:07:05;6.38;;;3.30;;
59052;SDS011;44843;44.728;10.396;2022-09-02T06:09:31;4.05;;;3.45;;
59052;SDS011;44843;44.728;10.396;2022-09-02T06:11:57;8.70;;;3.47;;
59052;SDS011;44843;44.728;10.396;2022-09-02T06:14:23;5.80;;;3.45;;
59052;SDS011;44843;44.728;10.396;2022-09-02T06:16:50;6.35;;;3.53;;
59052;SDS011;44843;44.728;10.396;2022-09-02T06:19:17;7.57;;;3.35;;
59052;SDS011;44843;44.728;10.396;2022-09-02T06:21:43;7.53;;;3.53;;
59052;SDS011;44843;44.728;10.396;2022-09-02T06:24:09;7.90;;;3.38;;
59052;SDS011;44843;44.728;10.396;2022-09-02T06:26:36;6.07;;;3.70;;
59052;SDS011;44843;44.728;10.396;2022-09-02T06:29:04;6.90;;;3.42;;
59052;SDS011;44843;44.728;10.396;2022-09-02T06:31:30;5.90;;;3.05;;
59052;SDS011;44843;44.728;10.396;2022-09-02T06:33:57;4.88;;;3.55;;
59052;SDS011;44843;44.728;10.396;2022-09-02T06:36:25;11.30;;;4.18;;
59052;SDS011;44843;44.728;10.396;2022-09-02T06:38:53;5.30;;;3.88;;
59052;SDS011;44843;44.728;10.396;2022-09-02T06:41:20;6.45;;;3.88;;
59052;SDS011;44843;44.728;10.396;2022-09-02T06:43:50;5.25;;;3.88;;
59052;SDS011;44843;44.728;10.396;2022-09-02T06:46:17;12.45;;;5.18;;
59052;SDS011;44843;44.728;10.396;2022-09-02T06:48:45;7.45;;;4.93;;
59052;SDS011;44843;44.728;10.396;2022-09-02T06:51:17;9.10;;;5.18;;
59052;SDS011;44843;44.728;10.396;2022-09-02T06:53:47;7.28;;;4.43;;
59052;SDS011;44843;44.728;10.396;2022-09-02T06:56:12;12.98;;;4.85;;
59052;SDS011;44843;44.728;10.396;2022-09-02T06:58:38;7.90;;;4.72;;
59052;SDS011;44843;44.728;10.396;2022-09-02T07:01:03;7.53;;;4.45;;
59052;SDS011;44843;44.728;10.396;2022-09-02T07:03:29;6.88;;;4.63;;
59052;SDS011;44843;44.728;10.396;2022-09-02T07:08:39;7.82;;;4.35;;
59052;SDS011;44843;44.728;10.396;2022-09-02T07:11:11;6.50;;;4.40;;
59052;SDS011;44843;44.728;10.396;2022-09-02T07:13:41;5.68;;;4.93;;
59052;SDS011;44843;44.728;10.396;2022-09-02T07:16:06;10.20;;;4.60;;
59052;SDS011;44843;44.728;10.396;2022-09-02T07:18:32;7.25;;;4.97;;
59052;SDS011;44843;44.728;10.396;2022-09-02T07:20:58;9.88;;;5.60;;
59052;SDS011;44843;44.728;10.396;2022-09-02T07:23:24;7.75;;;6.28;;
59052;SDS011;44843;44.728;10.396;2022-09-02T07:25:49;9.82;;;5.72;;
59052;SDS011;44843;44.728;10.396;2022-09-02T07:28:15;9.07;;;5.72;;
59052;SDS011;44843;44.728;10.396;2022-09-02T07:30:41;9.63;;;5.88;;
59052;SDS011;44843;44.728;10.396;2022-09-02T07:33:07;12.60;;;6.15;;
59052;SDS011;44843;44.728;10.396;2022-09-02T07:35:33;8.30;;;6.38;;
59052;SDS011;44843;44.728;10.396;2022-09-02T07:38:00;9.32;;;7.18;;
59052;SDS011;44843;44.728;10.396;2022-09-02T07:40:27;8.23;;;6.35;;
59052;SDS011;44843;44.728;10.396;2022-09-02T07:42:54;10.80;;;7.60;;
59052;SDS011;44843;44.728;10.396;2022-09-02T07:45:19;9.02;;;7.13;;
59052;SDS011;44843;44.728;10.396;2022-09-02T07:47:45;10.50;;;6.40;;
59052;SDS011;44843;44.728;10.396;2022-09-02T07:50:11;9.68;;;7.05;;
59052;SDS011;44843;44.728;10.396;2022-09-02T07:52:37;11.73;;;8.18;;
59052;SDS011;44843;44.728;10.396;2022-09-02T07:55:03;10.13;;;7.57;;
59052;SDS011;44843;44.728;10.396;2022-09-02T07:57:30;12.88;;;7.00;;
59052;SDS011;44843;44.728;10.396;2022-09-02T07:59:55;7.57;;;6.68;;
59052;SDS011;44843;44.728;10.396;2022-09-02T08:02:21;11.05;;;7.25;;
59052;SDS011;44843;44.728;10.396;2022-09-02T08:04:46;7.95;;;6.60;;
59052;SDS011;44843;44.728;10.396;2022-09-02T08:07:12;11.38;;;6.40;;
59052;SDS011;44843;44.728;10.396;2022-09-02T08:09:37;11.68;;;6.70;;
59052;SDS011;44843;44.728;10.396;2022-09-02T08:12:03;5.57;;;4.55;;
59052;SDS011;44843;44.728;10.396;2022-09-02T08:14:30;6.72;;;4.90;;
59052;SDS011;44843;44.728;10.396;2022-09-02T08:16:55;8.68;;;5.10;;
59052;SDS011;44843;44.728;10.396;2022-09-02T08:19:22;7.55;;;4.30;;
59052;SDS011;44843;44.728;10.396;2022-09-02T08:21:49;7.75;;;3.55;;
59052;SDS011;44843;44.728;10.396;2022-09-02T08:24:15;4.90;;;3.65;;
59052;SDS011;44843;44.728;10.396;2022-09-02T08:26:40;5.88;;;4.40;;
59052;SDS011;44843;44.728;10.396;2022-09-02T08:29:06;6.05;;;4.50;;
59052;SDS011;44843;44.728;10.396;2022-09-02T08:31:33;7.95;;;3.70;;
59052;SDS011;44843;44.728;10.396;2022-09-02T08:34:00;5.60;;;3.47;;
59052;SDS011;44843;44.728;10.396;2022-09-02T08:36:25;4.25;;;3.60;;
59052;SDS011;44843;44.728;10.396;2022-09-02T08:38:51;5.03;;;3.63;;
59052;SDS011;44843;44.728;10.396;2022-09-02T08:41:23;5.47;;;3.83;;
59052;SDS011;44843;44.728;10.396;2022-09-02T08:43:51;6.82;;;4.07;;
59052;SDS011;44843;44.728;10.396;2022-09-02T08:46:20;4.30;;;3.78;;
59052;SDS011;44843;44.728;10.396;2022-09-02T08:49:10;5.97;;;4.30;;
59052;SDS011;44843;44.728;10.396;2022-09-02T08:51:59;6.75;;;4.53;;
59052;SDS011;44843;44.728;10.396;2022-09-02T08:54:41;5.88;;;4.18;;
59052;SDS011;44843;44.728;10.396;2022-09-02T08:57:12;5.15;;;4.15;;
59052;SDS011;44843;44.728;10.396;2022-09-02T08:59:37;6.47;;;3.20;;
59052;SDS011;44843;44.728;10.396;2022-09-02T09:02:05;6.60;;;4.63;;
59052;SDS011;44843;44.728;10.396;2022-09-02T09:21:35;6.43;;;2.80;;
59052;SDS011;44843;44.728;10.396;2022-09-02T09:24:13;4.05;;;2.55;;
59052;SDS011;44843;44.728;10.396;2022-09-02T09:26:53;5.90;;;3.28;;
59052;SDS011;44843;44.728;10.396;2022-09-02T09:29:21;4.18;;;3.00;;
59052;SDS011;44843;44.728;10.396;2022-09-02T09:31:49;4.57;;;2.28;;
59052;SDS011;44843;44.728;10.396;2022-09-02T09:34:19;4.03;;;2.80;;
59052;SDS011;44843;44.728;10.396;2022-09-02T09:36:47;4.63;;;2.90;;
59052;SDS011;44843;44.728;10.396;2022-09-02T09:39:19;5.20;;;2.92;;
59052;SDS011;44843;44.728;10.396;2022-09-02T09:41:54;6.63;;;3.75;;
59052;SDS011;44843;44.728;10.396;2022-09-02T09:49:40;2.75;;;2.50;;
59052;SDS011;44843;44.728;10.396;2022-09-02T09:52:05;8.63;;;3.05;;
59052;SDS011;44843;44.728;10.396;2022-09-02T09:54:31;4.93;;;2.75;;
59052;SDS011;44843;44.728;10.396;2022-09-02T09:57:11;3.22;;;2.92;;
59052;SDS011;44843;44.728;10.396;2022-09-02T09:59:41;5.50;;;2.78;;
59052;SDS011;44843;44.728;10.396;2022-09-02T10:04:51;6.00;;;3.72;;
59052;SDS011;44843;44.728;10.396;2022-09-02T10:07:34;5.80;;;3.40;;
59052;SDS011;44843;44.728;10.396;2022-09-02T10:10:16;4.97;;;3.35;;
59052;SDS011;44843;44.728;10.396;2022-09-02T10:12:45;7.10;;;3.55;;
59052;SDS011;44843;44.728;10.396;2022-09-02T10:15:13;4.15;;;2.80;;
59052;SDS011;44843;44.728;10.396;2022-09-02T10:17:54;3.70;;;3.08;;
59052;SDS011;44843;44.728;10.396;2022-09-02T10:20:41;8.45;;;3.28;;
59052;SDS011;44843;44.728;10.396;2022-09-02T10:28:52;3.63;;;3.33;;
59052;SDS011;44843;44.728;10.396;2022-09-02T10:32:38;4.03;;;3.60;;
59052;SDS011;44843;44.728;10.396;2022-09-02T10:37:21;6.22;;;3.60;;
59052;SDS011;44843;44.728;10.396;2022-09-02T10:53:50;4.93;;;3.38;;
59052;SDS011;44843;44.728;10.396;2022-09-02T10:56:43;4.80;;;3.90;;
59052;SDS011;44843;44.728;10.396;2022-09-02T10:59:25;4.90;;;3.40;;
59052;SDS011;44843;44.728;10.396;2022-09-02T11:01:59;4.47;;;3.60;;
59052;SDS011;44843;44.728;10.396;2022-09-02T11:04:40;4.80;;;3.00;;
59052;SDS011;44843;44.728;10.396;2022-09-02T11:07:13;4.47;;;2.90;;
59052;SDS011;44843;44.728;10.396;2022-09-02T11:09:44;5.18;;;4.03;;
59052;SDS011;44843;44.728;10.396;2022-09-02T11:12:20;6.13;;;3.08;;
59052;SDS011;44843;44.728;10.396;2022-09-02T11:17:48;6.35;;;4.13;;
59052;SDS011;44843;44.728;10.396;2022-09-02T11:20:29;4.70;;;3.40;;
59052;SDS011;44843;44.728;10.396;2022-09-02T11:26:32;4.85;;;4.18;;
59052;SDS011;44843;44.728;10.396;2022-09-02T11:29:13;4.03;;;3.60;;
59052;SDS011;44843;44.728;10.396;2022-09-02T11:31:50;5.20;;;3.75;;
59052;SDS011;44843;44.728;10.396;2022-09-02T11:37:08;5.60;;;3.50;;
59052;SDS011;44843;44.728;10.396;2022-09-02T11:55:16;5.22;;;3.45;;
59052;SDS011;44843;44.728;10.396;2022-09-02T11:57:52;3.50;;;3.15;;
59052;SDS011;44843;44.728;10.396;2022-09-02T12:07:57;4.00;;;3.60;;
59052;SDS011;44843;44.728;10.396;2022-09-02T12:11:06;3.88;;;2.95;;
59052;SDS011;44843;44.728;10.396;2022-09-02T12:13:32;3.45;;;3.00;;
59052;SDS011;44843;44.728;10.396;2022-09-02T12:18:39;5.78;;;3.50;;
59052;SDS011;44843;44.728;10.396;2022-09-02T12:21:31;5.40;;;2.75;;
59052;SDS011;44843;44.728;10.396;2022-09-02T12:26:25;3.03;;;2.47;;
59052;SDS011;44843;44.728;10.396;2022-09-02T12:35:06;5.38;;;3.88;;
59052;SDS011;44843;44.728;10.396;2022-09-02T12:37:14;5.28;;;3.03;;
59052;SDS011;44843;44.728;10.396;2022-09-02T12:40:25;6.15;;;2.90;;
59052;SDS011;44843;44.728;10.396;2022-09-02T12:42:58;8.02;;;3.00;;
59052;SDS011;44843;44.728;10.396;2022-09-02T12:45:26;3.05;;;2.85;;
59052;SDS011;44843;44.728;10.396;2022-09-02T12:48:00;7.18;;;3.35;;
59052;SDS011;44843;44.728;10.396;2022-09-02T12:53:24;3.67;;;3.10;;
59052;SDS011;44843;44.728;10.396;2022-09-02T12:58:28;5.00;;;3.65;;
59052;SDS011;44843;44.728;10.396;2022-09-02T13:04:24;2.50;;;2.30;;
59052;SDS011;44843;44.728;10.396;2022-09-02T13:12:40;2.95;;;2.63;;
59052;SDS011;44843;44.728;10.396;2022-09-02T13:21:20;3.55;;;2.50;;
59052;SDS011;44843;44.728;10.396;2022-09-02T13:30:05;5.18;;;2.50;;
59052;SDS011;44843;44.728;10.396;2022-09-02T13:32:31;3.33;;;2.65;;
59052;SDS011;44843;44.728;10.396;2022-09-02T13:35:02;5.63;;;3.13;;
59052;SDS011;44843;44.728;10.396;2022-09-02T13:39:59;5.03;;;2.80;;
59052;SDS011;44843;44.728;10.396;2022-09-02T13:42:30;4.18;;;2.60;;
59052;SDS011;44843;44.728;10.396;2022-09-02T13:48:10;3.55;;;2.67;;
59052;SDS011;44843;44.728;10.396;2022-09-02T13:50:34;5.65;;;3.20;;
59052;SDS011;44843;44.728;10.396;2022-09-02T13:53:01;3.45;;;2.60;;
59052;SDS011;44843;44.728;10.396;2022-09-02T13:55:29;4.05;;;2.95;;
59052;SDS011;44843;44.728;10.396;2022-09-02T14:00:34;5.90;;;2.90;;
59052;SDS011;44843;44.728;10.396;2022-09-02T14:03:05;3.70;;;2.40;;
59052;SDS011;44843;44.728;10.396;2022-09-02T14:05:32;3.90;;;2.90;;
59052;SDS011;44843;44.728;10.396;2022-09-02T14:08:00;3.35;;;3.05;;
59052;SDS011;44843;44.728;10.396;2022-09-02T14:10:28;5.35;;;2.80;;
59052;SDS011;44843;44.728;10.396;2022-09-02T14:12:55;4.88;;;2.88;;
59052;SDS011;44843;44.728;10.396;2022-09-02T14:15:25;3.28;;;2.80;;
59052;SDS011;44843;44.728;10.396;2022-09-02T14:20:39;4.20;;;2.80;;
59052;SDS011;44843;44.728;10.396;2022-09-02T14:23:18;3.30;;;2.65;;
59052;SDS011;44843;44.728;10.396;2022-09-02T14:25:50;2.92;;;2.63;;
59052;SDS011;44843;44.728;10.396;2022-09-02T14:28:19;3.53;;;3.20;;
59052;SDS011;44843;44.728;10.396;2022-09-02T14:31:03;4.70;;;3.17;;
59052;SDS011;44843;44.728;10.396;2022-09-02T14:41:11;4.05;;;2.90;;
59052;SDS011;44843;44.728;10.396;2022-09-02T14:43:44;5.05;;;3.30;;
59052;SDS011;44843;44.728;10.396;2022-09-02T14:48:55;5.25;;;3.00;;
59052;SDS011;44843;44.728;10.396;2022-09-02T14:51:21;3.65;;;2.40;;
59052;SDS011;44843;44.728;10.396;2022-09-02T14:53:47;4.60;;;2.83;;
59052;SDS011;44843;44.728;10.396;2022-09-02T14:56:13;2.90;;;2.55;;
59052;SDS011;44843;44.728;10.396;2022-09-02T14:58:38;3.13;;;2.72;;
59052;SDS011;44843;44.728;10.396;2022-09-02T15:01:04;3.92;;;2.80;;
59052;SDS011;44843;44.728;10.396;2022-09-02T15:03:35;3.65;;;2.47;;
59052;SDS011;44843;44.728;10.396;2022-09-02T15:06:02;4.10;;;2.65;;
59052;SDS011;44843;44.728;10.396;2022-09-02T15:08:27;4.70;;;3.28;;
59052;SDS011;44843;44.728;10.396;2022-09-02T15:10:52;5.18;;;2.83;;
59052;SDS011;44843;44.728;10.396;2022-09-02T15:13:27;5.22;;;2.60;;
59052;SDS011;44843;44.728;10.396;2022-09-02T15:15:56;3.30;;;2.50;;
59052;SDS011;44843;44.728;10.396;2022-09-02T15:18:22;4.15;;;3.05;;
59052;SDS011;44843;44.728;10.396;2022-09-02T15:20:47;3.60;;;2.85;;
59052;SDS011;44843;44.728;10.396;2022-09-02T15:23:13;6.85;;;2.90;;
59052;SDS011;44843;44.728;10.396;2022-09-02T15:25:39;4.63;;;2.70;;
59052;SDS011;44843;44.728;10.396;2022-09-02T15:28:04;3.65;;;2.80;;
59052;SDS011;44843;44.728;10.396;2022-09-02T15:30:32;5.45;;;2.90;;
59052;SDS011;44843;44.728;10.396;2022-09-02T15:33:01;4.15;;;2.90;;
59052;SDS011;44843;44.728;10.396;2022-09-02T15:35:32;2.80;;;2.60;;
59052;SDS011;44843;44.728;10.396;2022-09-02T15:37:59;6.75;;;2.80;;
59052;SDS011;44843;44.728;10.396;2022-09-02T15:40:26;5.78;;;3.15;;
59052;SDS011;44843;44.728;10.396;2022-09-02T15:42:51;4.75;;;2.90;;
59052;SDS011;44843;44.728;10.396;2022-09-02T15:45:17;3.63;;;2.75;;
59052;SDS011;44843;44.728;10.396;2022-09-02T15:47:42;3.75;;;2.88;;
59052;SDS011;44843;44.728;10.396;2022-09-02T15:50:08;5.85;;;2.70;;
59052;SDS011;44843;44.728;10.396;2022-09-02T15:52:34;3.88;;;2.78;;
59052;SDS011;44843;44.728;10.396;2022-09-02T15:55:00;4.75;;;2.55;;
59052;SDS011;44843;44.728;10.396;2022-09-02T15:57:25;2.80;;;2.60;;
59052;SDS011;44843;44.728;10.396;2022-09-02T15:59:51;3.75;;;2.40;;
59052;SDS011;44843;44.728;10.396;2022-09-02T16:02:16;3.80;;;2.35;;
59052;SDS011;44843;44.728;10.396;2022-09-02T16:04:41;4.65;;;2.72;;
59052;SDS011;44843;44.728;10.396;2022-09-02T16:07:07;3.80;;;2.47;;
59052;SDS011;44843;44.728;10.396;2022-09-02T16:09:32;4.80;;;2.80;;
59052;SDS011;44843;44.728;10.396;2022-09-02T16:11:58;5.22;;;2.75;;
59052;SDS011;44843;44.728;10.396;2022-09-02T16:14:23;6.30;;;2.60;;
59052;SDS011;44843;44.728;10.396;2022-09-02T16:16:50;7.65;;;3.08;;
59052;SDS011;44843;44.728;10.396;2022-09-02T16:19:18;4.15;;;2.63;;
59052;SDS011;44843;44.728;10.396;2022-09-02T16:21:47;2.85;;;2.65;;
59052;SDS011;44843;44.728;10.396;2022-09-02T16:24:14;3.38;;;2.97;;
59052;SDS011;44843;44.728;10.396;2022-09-02T16:26:42;4.32;;;3.28;;
59052;SDS011;44843;44.728;10.396;2022-09-02T16:29:09;2.80;;;2.60;;
59052;SDS011;44843;44.728;10.396;2022-09-02T16:31:40;4.28;;;3.00;;
59052;SDS011;44843;44.728;10.396;2022-09-02T16:34:07;4.72;;;2.85;;
59052;SDS011;44843;44.728;10.396;2022-09-02T16:36:44;8.93;;;3.20;;
59052;SDS011;44843;44.728;10.396;2022-09-02T16:39:11;3.72;;;3.03;;
59052;SDS011;44843;44.728;10.396;2022-09-02T16:41:43;7.45;;;3.00;;
59052;SDS011;44843;44.728;10.396;2022-09-02T16:44:11;6.90;;;3.08;;
59052;SDS011;44843;44.728;10.396;2022-09-02T16:46:48;6.22;;;3.85;;
59052;SDS011;44843;44.728;10.396;2022-09-02T16:49:15;4.88;;;3.40;;
59052;SDS011;44843;44.728;10.396;2022-09-02T16:51:44;7.00;;;3.80;;
59052;SDS011;44843;44.728;10.396;2022-09-02T16:54:11;4.38;;;3.58;;
59052;SDS011;44843;44.728;10.396;2022-09-02T16:56:37;5.10;;;3.55;;
59052;SDS011;44843;44.728;10.396;2022-09-02T16:59:04;7.05;;;4.65;;
59052;SDS011;44843;44.728;10.396;2022-09-02T17:01:31;13.60;;;5.18;;
59052;SDS011;44843;44.728;10.396;2022-09-02T17:03:57;10.95;;;4.55;;